Seraing, Belgium
Current Conditions -  °F | °C
As of 9:20 AM on Monday 26 Jan 2015 (Local Time) from EBLG Reporting Station
Light Rain Light Rain  
Wind Chill: -2°   Ceiling: 200
Heat Index:   Visibility: 1.1mi
Dew Point:   Wind: 12mph
Humidity: 93%   Direction: 190°S
Pressure: 30.18"   Gusts: NA
Location:  50.59°N, 5.52°E
Report Text: EBLG 260820Z 19010KT 1800 -RADZ BR BKN002 BKN009 02/01 Q1022 TEMPO 1000 BR
Loading
Personal Weather Stations






























Interactive Weather Map New forecast layout! Learn more

10-Day Weather Forecast

Advertisements
Track Severe Weather on mobile